sensor_id;sensor_type;location;lat;lon;timestamp;P1;durP1;ratioP1;P2;durP2;ratioP2
57299;SDS011;43148;50.966;18.198;2023-10-19T00:07:06;20.70;;;18.90;;
57299;SDS011;43148;50.966;18.198;2023-10-19T00:16:54;20.50;;;18.40;;
57299;SDS011;43148;50.966;18.198;2023-10-19T00:26:53;21.10;;;18.80;;
57299;SDS011;43148;50.966;18.198;2023-10-19T00:36:54;22.70;;;20.30;;
57299;SDS011;43148;50.966;18.198;2023-10-19T00:47:07;14.20;;;11.70;;
57299;SDS011;43148;50.966;18.198;2023-10-19T00:57:06;25.20;;;22.70;;
57299;SDS011;43148;50.966;18.198;2023-10-19T01:07:21;25.00;;;20.70;;
57299;SDS011;43148;50.966;18.198;2023-10-19T01:17:31;15.80;;;14.30;;
57299;SDS011;43148;50.966;18.198;2023-10-19T01:27:19;20.30;;;18.20;;
57299;SDS011;43148;50.966;18.198;2023-10-19T01:37:08;16.10;;;14.60;;
57299;SDS011;43148;50.966;18.198;2023-10-19T01:46:57;31.50;;;23.60;;
57299;SDS011;43148;50.966;18.198;2023-10-19T01:56:54;38.30;;;26.00;;
57299;SDS011;43148;50.966;18.198;2023-10-19T02:06:47;26.60;;;23.80;;
57299;SDS011;43148;50.966;18.198;2023-10-19T02:16:40;17.60;;;15.90;;
57299;SDS011;43148;50.966;18.198;2023-10-19T02:26:32;21.60;;;19.60;;
57299;SDS011;43148;50.966;18.198;2023-10-19T02:36:26;26.40;;;20.40;;
57299;SDS011;43148;50.966;18.198;2023-10-19T02:46:30;21.40;;;19.50;;
57299;SDS011;43148;50.966;18.198;2023-10-19T02:56:31;23.20;;;21.30;;
57299;SDS011;43148;50.966;18.198;2023-10-19T03:06:28;20.10;;;17.40;;
57299;SDS011;43148;50.966;18.198;2023-10-19T03:16:22;20.10;;;17.90;;
57299;SDS011;43148;50.966;18.198;2023-10-19T03:26:08;16.20;;;14.50;;
57299;SDS011;43148;50.966;18.198;2023-10-19T03:36:22;13.90;;;12.90;;
57299;SDS011;43148;50.966;18.198;2023-10-19T03:46:17;20.00;;;18.10;;
57299;SDS011;43148;50.966;18.198;2023-10-19T03:56:52;30.10;;;22.00;;
57299;SDS011;43148;50.966;18.198;2023-10-19T04:04:25;30.70;;;23.30;;
57299;SDS011;43148;50.966;18.198;2023-10-19T04:14:23;17.50;;;15.70;;
57299;SDS011;43148;50.966;18.198;2023-10-19T04:24:12;17.10;;;14.60;;
57299;SDS011;43148;50.966;18.198;2023-10-19T04:34:06;14.10;;;13.10;;
57299;SDS011;43148;50.966;18.198;2023-10-19T04:44:02;12.80;;;11.80;;
57299;SDS011;43148;50.966;18.198;2023-10-19T04:53:46;14.50;;;13.50;;
57299;SDS011;43148;50.966;18.198;2023-10-19T05:03:31;10.70;;;9.70;;
57299;SDS011;43148;50.966;18.198;2023-10-19T05:13:21;19.00;;;11.70;;
57299;SDS011;43148;50.966;18.198;2023-10-19T05:23:06;14.00;;;12.90;;
57299;SDS011;43148;50.966;18.198;2023-10-19T05:32:53;12.60;;;11.50;;
57299;SDS011;43148;50.966;18.198;2023-10-19T05:42:41;16.30;;;14.00;;
57299;SDS011;43148;50.966;18.198;2023-10-19T05:52:23;16.60;;;15.10;;
57299;SDS011;43148;50.966;18.198;2023-10-19T06:02:06;12.80;;;11.70;;
57299;SDS011;43148;50.966;18.198;2023-10-19T06:11:55;13.40;;;12.30;;
57299;SDS011;43148;50.966;18.198;2023-10-19T06:21:37;23.80;;;14.00;;
57299;SDS011;43148;50.966;18.198;2023-10-19T06:31:25;17.20;;;15.80;;
57299;SDS011;43148;50.966;18.198;2023-10-19T06:41:16;7.10;;;6.50;;
57299;SDS011;43148;50.966;18.198;2023-10-19T06:51:02;25.90;;;22.60;;
57299;SDS011;43148;50.966;18.198;2023-10-19T07:00:49;24.50;;;21.30;;
57299;SDS011;43148;50.966;18.198;2023-10-19T07:10:40;15.50;;;14.10;;
57299;SDS011;43148;50.966;18.198;2023-10-19T07:20:25;20.20;;;15.30;;
57299;SDS011;43148;50.966;18.198;2023-10-19T07:30:15;11.50;;;10.70;;
57299;SDS011;43148;50.966;18.198;2023-10-19T07:40:36;12.60;;;11.60;;
57299;SDS011;43148;50.966;18.198;2023-10-19T07:50:22;33.40;;;21.20;;
57299;SDS011;43148;50.966;18.198;2023-10-19T08:00:07;38.30;;;22.60;;
57299;SDS011;43148;50.966;18.198;2023-10-19T08:10:13;21.30;;;14.00;;
57299;SDS011;43148;50.966;18.198;2023-10-19T08:20:13;22.50;;;14.90;;
57299;SDS011;43148;50.966;18.198;2023-10-19T08:30:12;13.10;;;12.00;;
57299;SDS011;43148;50.966;18.198;2023-10-19T08:39:56;18.70;;;16.70;;
57299;SDS011;43148;50.966;18.198;2023-10-19T08:49:41;19.90;;;17.50;;
57299;SDS011;43148;50.966;18.198;2023-10-19T08:59:28;18.30;;;16.80;;
57299;SDS011;43148;50.966;18.198;2023-10-19T09:09:20;17.80;;;16.30;;
57299;SDS011;43148;50.966;18.198;2023-10-19T09:19:28;27.30;;;17.40;;
57299;SDS011;43148;50.966;18.198;2023-10-19T09:29:31;20.80;;;17.30;;
57299;SDS011;43148;50.966;18.198;2023-10-19T09:39:31;22.70;;;18.10;;
57299;SDS011;43148;50.966;18.198;2023-10-19T09:49:31;15.50;;;14.00;;
57299;SDS011;43148;50.966;18.198;2023-10-19T09:59:32;18.00;;;16.40;;
57299;SDS011;43148;50.966;18.198;2023-10-19T10:09:34;26.80;;;22.90;;
57299;SDS011;43148;50.966;18.198;2023-10-19T10:30:01;16.20;;;14.90;;
57299;SDS011;43148;50.966;18.198;2023-10-19T10:40:24;16.70;;;13.00;;
57299;SDS011;43148;50.966;18.198;2023-10-19T10:50:20;18.50;;;14.30;;
57299;SDS011;43148;50.966;18.198;2023-10-19T11:09:58;17.60;;;16.00;;
57299;SDS011;43148;50.966;18.198;2023-10-19T11:19:58;21.00;;;19.10;;
57299;SDS011;43148;50.966;18.198;2023-10-19T11:29:55;14.50;;;13.40;;
57299;SDS011;43148;50.966;18.198;2023-10-19T11:39:39;18.30;;;16.50;;
57299;SDS011;43148;50.966;18.198;2023-10-19T11:49:21;31.50;;;16.90;;
57299;SDS011;43148;50.966;18.198;2023-10-19T11:59:05;44.50;;;32.00;;
57299;SDS011;43148;50.966;18.198;2023-10-19T12:08:51;32.60;;;23.70;;
57299;SDS011;43148;50.966;18.198;2023-10-19T12:18:38;27.40;;;20.40;;
57299;SDS011;43148;50.966;18.198;2023-10-19T12:28:37;32.70;;;21.30;;
57299;SDS011;43148;50.966;18.198;2023-10-19T12:38:49;18.40;;;16.60;;
57299;SDS011;43148;50.966;18.198;2023-10-19T12:48:55;15.90;;;14.50;;
57299;SDS011;43148;50.966;18.198;2023-10-19T12:58:45;25.00;;;19.30;;
57299;SDS011;43148;50.966;18.198;2023-10-19T13:08:39;28.90;;;16.20;;
57299;SDS011;43148;50.966;18.198;2023-10-19T13:18:23;18.40;;;16.70;;
57299;SDS011;43148;50.966;18.198;2023-10-19T13:28:20;10.30;;;9.60;;
57299;SDS011;43148;50.966;18.198;2023-10-19T13:38:13;25.40;;;23.20;;
57299;SDS011;43148;50.966;18.198;2023-10-19T13:48:03;22.50;;;19.40;;
57299;SDS011;43148;50.966;18.198;2023-10-19T13:57:51;20.50;;;18.30;;
57299;SDS011;43148;50.966;18.198;2023-10-19T14:08:03;25.80;;;23.20;;
57299;SDS011;43148;50.966;18.198;2023-10-19T14:17:51;13.30;;;12.10;;
57299;SDS011;43148;50.966;18.198;2023-10-19T14:27:41;28.50;;;25.70;;
57299;SDS011;43148;50.966;18.198;2023-10-19T14:44:45;27.10;;;24.30;;
57299;SDS011;43148;50.966;18.198;2023-10-19T14:54:30;18.80;;;16.90;;
57299;SDS011;43148;50.966;18.198;2023-10-19T15:04:13;22.30;;;20.20;;
57299;SDS011;43148;50.966;18.198;2023-10-19T15:13:55;24.10;;;21.90;;
57299;SDS011;43148;50.966;18.198;2023-10-19T15:23:43;34.50;;;30.30;;
57299;SDS011;43148;50.966;18.198;2023-10-19T15:33:35;36.10;;;32.10;;
57299;SDS011;43148;50.966;18.198;2023-10-19T15:43:18;38.20;;;32.90;;
57299;SDS011;43148;50.966;18.198;2023-10-19T15:53:08;30.70;;;25.10;;
57299;SDS011;43148;50.966;18.198;2023-10-19T16:10:11;117.30;;;52.40;;
57299;SDS011;43148;50.966;18.198;2023-10-19T16:20:01;65.40;;;43.20;;
57299;SDS011;43148;50.966;18.198;2023-10-19T16:29:49;30.80;;;25.90;;
57299;SDS011;43148;50.966;18.198;2023-10-19T16:39:32;27.00;;;24.20;;
57299;SDS011;43148;50.966;18.198;2023-10-19T16:49:18;26.60;;;24.00;;
57299;SDS011;43148;50.966;18.198;2023-10-19T16:59:04;31.90;;;28.60;;
57299;SDS011;43148;50.966;18.198;2023-10-19T17:09:00;34.40;;;26.50;;
57299;SDS011;43148;50.966;18.198;2023-10-19T17:18:59;27.80;;;25.10;;
57299;SDS011;43148;50.966;18.198;2023-10-19T17:28:44;14.80;;;13.50;;
57299;SDS011;43148;50.966;18.198;2023-10-19T17:38:28;34.10;;;30.70;;
57299;SDS011;43148;50.966;18.198;2023-10-19T17:48:12;41.80;;;33.20;;
57299;SDS011;43148;50.966;18.198;2023-10-19T17:57:57;59.40;;;37.20;;
57299;SDS011;43148;50.966;18.198;2023-10-19T18:07:45;37.00;;;32.00;;
57299;SDS011;43148;50.966;18.198;2023-10-19T18:17:36;41.40;;;37.00;;
57299;SDS011;43148;50.966;18.198;2023-10-19T18:27:28;12.90;;;11.90;;
57299;SDS011;43148;50.966;18.198;2023-10-19T18:37:11;34.20;;;30.30;;
57299;SDS011;43148;50.966;18.198;2023-10-19T18:47:00;42.10;;;37.00;;
57299;SDS011;43148;50.966;18.198;2023-10-19T18:56:43;36.10;;;32.40;;
57299;SDS011;43148;50.966;18.198;2023-10-19T19:06:27;42.80;;;36.20;;
57299;SDS011;43148;50.966;18.198;2023-10-19T19:16:13;44.30;;;35.80;;
57299;SDS011;43148;50.966;18.198;2023-10-19T19:26:00;44.00;;;34.50;;
57299;SDS011;43148;50.966;18.198;2023-10-19T19:35:45;36.10;;;31.60;;
57299;SDS011;43148;50.966;18.198;2023-10-19T19:45:28;42.60;;;35.90;;
57299;SDS011;43148;50.966;18.198;2023-10-19T19:55:15;29.80;;;26.60;;
57299;SDS011;43148;50.966;18.198;2023-10-19T20:05:10;26.50;;;23.70;;
57299;SDS011;43148;50.966;18.198;2023-10-19T20:15:04;10.60;;;9.90;;
57299;SDS011;43148;50.966;18.198;2023-10-19T20:25:02;29.20;;;26.40;;
57299;SDS011;43148;50.966;18.198;2023-10-19T20:34:51;31.00;;;27.00;;
57299;SDS011;43148;50.966;18.198;2023-10-19T20:44:34;28.90;;;26.00;;
57299;SDS011;43148;50.966;18.198;2023-10-19T20:54:33;28.30;;;25.50;;
57299;SDS011;43148;50.966;18.198;2023-10-19T21:04:15;32.10;;;28.80;;
57299;SDS011;43148;50.966;18.198;2023-10-19T21:14:02;42.70;;;30.30;;
57299;SDS011;43148;50.966;18.198;2023-10-19T21:23:52;23.20;;;21.10;;
57299;SDS011;43148;50.966;18.198;2023-10-19T21:33:36;33.10;;;29.60;;
57299;SDS011;43148;50.966;18.198;2023-10-19T21:43:22;33.00;;;29.50;;
57299;SDS011;43148;50.966;18.198;2023-10-19T21:53:05;33.30;;;29.20;;
57299;SDS011;43148;50.966;18.198;2023-10-19T22:02:58;38.70;;;34.50;;
57299;SDS011;43148;50.966;18.198;2023-10-19T22:12:45;44.80;;;36.80;;
57299;SDS011;43148;50.966;18.198;2023-10-19T22:22:32;52.80;;;38.00;;
57299;SDS011;43148;50.966;18.198;2023-10-19T22:32:15;31.30;;;28.30;;
57299;SDS011;43148;50.966;18.198;2023-10-19T22:41:58;32.50;;;29.10;;
57299;SDS011;43148;50.966;18.198;2023-10-19T22:51:41;36.30;;;30.30;;
57299;SDS011;43148;50.966;18.198;2023-10-19T23:01:25;35.20;;;31.40;;
57299;SDS011;43148;50.966;18.198;2023-10-19T23:11:10;34.80;;;31.10;;
57299;SDS011;43148;50.966;18.198;2023-10-19T23:21:04;35.30;;;31.10;;
57299;SDS011;43148;50.966;18.198;2023-10-19T23:30:54;14.70;;;13.70;;
57299;SDS011;43148;50.966;18.198;2023-10-19T23:48:04;26.20;;;23.40;;
